Time;durP1;ratioP1;P1;durP2;ratioP2;P2;SDS_P1;SDS_P2;PMS_P1;PMS_P2;Temp;Humidity;BMP_temperature;BMP_pressure;BME280_temperature;BME280_humidity;BME280_pressure;Samples;Min_cycle;Max_cycle;Signal;HPM_P1;HPM_P2
2022/06/10 00:00:03;;;;;;;15.52;5.55;;;;;;;11.40;100.00;101894.91;5215397;28;20400;-65
2022/06/10 00:02:34;;;;;;;;;;;;;;;11.43;100.00;101895.59;5224503;28;20030;-65
2022/06/10 00:05:06;;;;;;;14.07;5.35;;;;;;;11.34;100.00;101893.50;5209241;28;20394;-65
2022/06/10 00:07:38;;;;;;;15.98;6.22;;;;;;;11.24;100.00;101892.34;5204814;28;20037;-65
2022/06/10 00:10:12;;;;;;;13.88;5.60;;;;;;;11.29;100.00;101891.09;5204713;28;20113;-65
2022/06/10 00:12:43;;;;;;;11.48;5.75;;;;;;;11.25;100.00;101894.91;5212726;28;20084;-65
2022/06/10 00:15:15;;;;;;;15.52;5.45;;;;;;;11.17;100.00;101894.53;5208954;28;20041;-65
2022/06/10 00:17:47;;;;;;;10.07;6.10;;;;;;;11.16;100.00;101888.34;5207911;28;20025;-65
2022/06/10 00:20:22;;;;;;;11.50;5.75;;;;;;;11.18;100.00;101897.13;5211137;28;20394;-65
2022/06/10 00:22:55;;;;;;;10.68;6.05;;;;;;;11.22;100.00;101894.25;5212269;28;20472;-65
2022/06/10 00:25:26;;;;;;;12.82;5.57;;;;;;;11.08;100.00;101885.28;5214642;28;20044;-65
2022/06/10 00:27:58;;;;;;;13.55;6.18;;;;;;;11.29;100.00;101892.91;5208281;28;20038;-65
2022/06/10 00:30:30;;;;;;;13.68;6.20;;;;;;;11.31;100.00;101893.66;5215929;28;20353;-65
2022/06/10 00:33:01;;;;;;;16.48;6.00;;;;;;;11.42;100.00;101898.34;5217390;28;20022;-65
2022/06/10 00:35:33;;;;;;;16.42;6.22;;;;;;;11.32;100.00;101890.06;5210389;28;20430;-65
2022/06/10 00:38:05;;;;;;;18.52;5.97;;;;;;;11.37;100.00;101890.59;5207075;28;20449;-65
2022/06/10 00:40:40;;;;;;;16.70;6.05;;;;;;;11.45;100.00;101888.31;5206195;28;20038;-65
2022/06/10 00:43:18;;;;;;;10.73;5.93;;;;;;;11.51;100.00;101892.44;5206667;28;20384;-65
2022/06/10 00:46:29;;;;;;;15.77;6.05;;;;;;;11.46;100.00;101894.53;5209804;28;20038;-65
2022/06/10 00:49:11;;;;;;;12.40;4.90;;;;;;;11.46;100.00;101894.53;5207529;28;20032;-65
2022/06/10 00:51:48;;;;;;;12.48;4.88;;;;;;;11.47;100.00;101891.75;5206777;28;20025;-65
2022/06/10 00:54:37;;;;;;;13.63;5.15;;;;;;;11.54;100.00;101890.41;5206704;28;20450;-65
2022/06/10 00:57:16;;;;;;;10.63;4.63;;;;;;;11.55;100.00;101889.44;5216182;28;20025;-65
2022/06/10 00:59:55;;;;;;;10.27;5.05;;;;;;;11.66;100.00;101880.75;5212756;28;20070;-65
2022/06/10 01:02:31;;;;;;;15.13;4.22;;;;;;;11.61;100.00;101885.53;5208654;28;20056;-65
2022/06/10 01:05:10;;;;;;;9.93;4.38;;;;;;;11.69;100.00;101885.03;5209531;28;20435;-65
2022/06/10 01:08:05;;;;;;;12.52;4.53;;;;;;;11.73;100.00;101883.88;5205426;28;20357;-65
2022/06/10 01:10:55;;;;;;;9.75;4.10;;;;;;;11.75;100.00;101888.19;5212025;28;20369;-65
2022/06/10 01:13:44;;;;;;;12.95;3.85;;;;;;;11.81;100.00;101886.91;5211585;28;20037;-65
2022/06/10 01:16:31;;;;;;;10.85;4.30;;;;;;;11.80;100.00;101893.22;5210780;28;20030;-65
2022/06/10 01:19:26;;;;;;;8.95;3.85;;;;;;;11.85;100.00;101891.13;5209784;28;20054;-65
2022/06/10 01:22:12;;;;;;;12.23;4.00;;;;;;;11.90;100.00;101896.19;5208023;28;20056;-65
2022/06/10 01:24:47;;;;;;;13.65;4.13;;;;;;;11.91;100.00;101888.06;5208742;28;20518;-65
2022/06/10 01:27:48;;;;;;;;;;;;;;;11.99;100.00;101886.72;5206832;28;20044;-65
2022/06/10 01:30:41;;;;;;;9.23;3.50;;;;;;;12.01;100.00;101892.81;5206753;28;19996;-65
2022/06/10 01:33:36;;;;;;;9.77;3.38;;;;;;;12.06;100.00;101893.34;5211114;28;20038;-65
2022/06/10 01:36:16;;;;;;;11.30;3.90;;;;;;;12.04;100.00;101889.91;5209350;28;20023;-65
2022/06/10 01:39:04;;;;;;;11.32;3.40;;;;;;;12.07;100.00;101889.72;5207796;28;20052;-65
2022/06/10 01:42:10;;;;;;;12.23;3.60;;;;;;;12.14;100.00;101894.56;5209118;28;20542;-65
2022/06/10 01:44:58;;;;;;;11.02;3.90;;;;;;;12.13;100.00;101887.50;5177736;28;20480;-65
2022/06/10 01:47:38;;;;;;;12.75;3.28;;;;;;;12.15;100.00;101898.09;5210523;28;20040;-65
2022/06/10 01:50:14;;;;;;;10.27;3.17;;;;;;;12.19;100.00;101893.41;5210970;28;20053;-65
2022/06/10 01:52:52;;;;;;;10.02;3.70;;;;;;;12.25;100.00;101893.84;5208036;28;20054;-65
2022/06/10 01:55:32;;;;;;;10.32;3.15;;;;;;;12.34;100.00;101890.56;5211390;28;20033;-65
2022/06/10 01:58:18;;;;;;;10.10;3.65;;;;;;;12.29;100.00;101891.81;5211655;28;20458;-65
2022/06/10 02:00:54;;;;;;;7.80;2.58;;;;;;;12.30;100.00;101883.69;5210818;28;20380;-65
2022/06/10 02:03:52;;;;;;;7.22;2.85;;;;;;;12.40;100.00;101889.28;5207427;28;20066;-65
2022/06/10 02:06:28;;;;;;;11.00;3.67;;;;;;;12.44;100.00;101888.09;5211889;28;20042;-65
2022/06/10 02:09:08;;;;;;;9.25;2.78;;;;;;;12.40;100.00;101891.97;5213102;28;20109;-65
2022/06/10 02:11:46;;;;;;;10.73;3.50;;;;;;;12.45;100.00;101891.66;5209246;28;20031;-65
2022/06/10 02:14:32;;;;;;;8.63;3.03;;;;;;;12.47;100.00;101895.94;5212589;28;20415;-65
2022/06/10 02:17:07;;;;;;;10.20;3.05;;;;;;;12.49;100.00;101898.53;5209246;28;20038;-65
2022/06/10 02:19:45;;;;;;;10.27;3.20;;;;;;;12.47;100.00;101890.59;5210386;28;20054;-65
2022/06/10 02:22:29;;;;;;;8.18;3.08;;;;;;;12.53;100.00;101889.31;5210448;28;20368;-65
2022/06/10 02:25:12;;;;;;;12.35;3.10;;;;;;;12.55;100.00;101884.72;5210815;28;20524;-65
2022/06/10 02:27:52;;;;;;;8.50;2.90;;;;;;;12.57;100.00;101896.19;5224120;28;20136;-65
2022/06/10 02:30:29;;;;;;;10.95;3.10;;;;;;;12.69;100.00;101891.78;5211732;28;20392;-65
2022/06/10 02:33:02;;;;;;;13.93;3.00;;;;;;;12.64;100.00;101902.84;5216404;28;20068;-65
2022/06/10 02:35:43;;;;;;;10.38;3.10;;;;;;;12.67;100.00;101902.59;5211344;28;20057;-65
2022/06/10 02:38:31;;;;;;;9.27;2.50;;;;;;;12.71;100.00;101901.47;5210074;28;20116;-65
2022/06/10 02:41:23;;;;;;;10.35;3.15;;;;;;;12.70;100.00;101915.78;5211199;28;20116;-65
2022/06/10 02:44:07;;;;;;;12.02;3.35;;;;;;;12.81;100.00;101901.69;5219399;28;20397;-65
2022/06/10 02:46:47;;;;;;;8.25;2.92;;;;;;;12.80;100.00;101912.50;5212271;28;20061;-65
2022/06/10 02:49:19;;;;;;;8.30;2.88;;;;;;;12.80;100.00;101912.50;5205327;28;20151;-65
2022/06/10 02:51:51;;;;;;;11.13;3.00;;;;;;;12.88;100.00;101907.44;5216554;28;20042;-65
2022/06/10 02:54:27;;;;;;;12.00;3.60;;;;;;;12.83;100.00;101909.59;5210766;28;20036;-65
2022/06/10 02:57:11;;;;;;;8.68;2.70;;;;;;;12.91;100.00;101904.56;5207819;28;20017;-65
2022/06/10 03:03:01;;;;;;;9.68;3.40;;;;;;;12.95;100.00;101900.72;5210594;28;20029;-65
2022/06/10 03:05:49;;;;;;;11.10;3.42;;;;;;;12.93;100.00;101908.00;5207430;28;20030;-65
2022/06/10 03:08:28;;;;;;;8.15;3.03;;;;;;;12.95;100.00;101912.28;5212410;28;20112;-65
2022/06/10 03:11:25;;;;;;;6.03;2.85;;;;;;;12.95;100.00;101920.31;5214110;28;20120;-65
2022/06/10 03:13:59;;;;;;;8.93;2.80;;;;;;;13.02;100.00;101915.41;5211429;28;20030;-65
2022/06/10 03:16:30;;;;;;;;;;;;;;;13.08;100.00;101914.97;5211216;28;20129;-65
2022/06/10 03:19:19;;;;;;;7.97;2.50;;;;;;;13.09;100.00;101915.81;5207210;28;19929;-65
2022/06/10 03:22:09;;;;;;;10.35;3.05;;;;;;;13.06;100.00;101921.38;5209229;28;20304;-65
2022/06/10 03:25:22;;;;;;;8.02;2.75;;;;;;;13.12;100.00;101921.81;5210948;28;20105;-65
2022/06/10 03:28:01;;;;;;;8.63;2.72;;;;;;;13.05;100.00;101927.72;5217987;28;20041;-65
2022/06/10 03:30:40;;;;;;;8.18;2.72;;;;;;;13.14;100.00;101930.59;5212566;28;20022;-66
2022/06/10 03:33:23;;;;;;;10.70;2.90;;;;;;;13.16;100.00;101930.50;5208535;28;20084;-66
2022/06/10 03:36:16;;;;;;;11.13;2.72;;;;;;;13.13;100.00;101936.94;5216007;28;20121;-65
2022/06/10 03:38:49;;;;;;;7.55;2.63;;;;;;;13.12;100.00;101935.22;5209357;28;20632;-66
2022/06/10 03:41:24;;;;;;;6.63;2.50;;;;;;;13.13;100.00;101931.59;5213467;28;20030;-66
2022/06/10 03:43:58;;;;;;;8.00;2.67;;;;;;;13.11;100.00;101933.50;5208241;28;20032;-66
2022/06/10 03:46:32;;;;;;;10.70;3.10;;;;;;;13.12;100.00;101926.34;5205918;28;20084;-65
2022/06/10 03:49:12;;;;;;;8.00;3.30;;;;;;;13.06;100.00;101916.03;5208614;28;20069;-65
2022/06/10 03:51:44;;;;;;;10.25;2.90;;;;;;;13.11;100.00;101916.56;5215067;28;20463;-65
2022/06/10 03:54:18;;;;;;;6.70;2.85;;;;;;;13.12;100.00;101919.16;5207270;28;20059;-65
2022/06/10 03:56:52;;;;;;;9.05;3.20;;;;;;;13.25;100.00;101919.16;5215454;28;20037;-65
2022/06/10 03:59:23;;;;;;;9.85;2.72;;;;;;;13.18;100.00;101933.09;5205257;28;20551;-65
2022/06/10 04:01:54;;;;;;;12.27;4.13;;;;;;;13.24;100.00;101935.34;5209825;28;20030;-65
2022/06/10 04:04:25;;;;;;;7.28;2.55;;;;;;;13.26;100.00;101936.94;5210774;28;20563;-65
2022/06/10 04:06:57;;;;;;;10.02;2.83;;;;;;;13.28;100.00;101939.50;5203555;28;20476;-65
2022/06/10 04:09:28;;;;;;;10.98;2.88;;;;;;;13.30;100.00;101940.28;5210913;28;20052;-66
2022/06/10 04:12:00;;;;;;;9.85;2.50;;;;;;;13.35;100.00;101938.16;5207591;28;20029;-65
2022/06/10 04:14:31;;;;;;;7.75;2.83;;;;;;;13.43;100.00;101938.44;5209898;28;20038;-65
2022/06/10 04:17:03;;;;;;;12.32;2.50;;;;;;;13.39;100.00;101945.00;5209684;28;20022;-65
2022/06/10 04:19:35;;;;;;;10.25;2.55;;;;;;;13.58;100.00;101949.06;5206725;28;20058;-65
2022/06/10 04:22:07;;;;;;;8.10;2.38;;;;;;;13.42;100.00;101939.41;5205117;28;20064;-65
2022/06/10 04:24:38;;;;;;;9.35;2.78;;;;;;;13.40;100.00;101952.06;5207060;28;20084;-65
2022/06/10 04:27:09;;;;;;;9.05;2.88;;;;;;;13.42;100.00;101958.16;5207308;28;20034;-65
2022/06/10 04:29:41;;;;;;;11.18;3.08;;;;;;;13.44;100.00;101956.25;5203598;28;20084;-65
2022/06/10 04:32:12;;;;;;;10.50;2.28;;;;;;;13.37;100.00;101952.28;5206410;28;20538;-65
2022/06/10 04:34:43;;;;;;;8.15;2.53;;;;;;;13.34;100.00;101947.13;5206395;28;20484;-65
2022/06/10 04:37:15;;;;;;;7.90;2.33;;;;;;;13.37;100.00;101949.63;5206034;28;20113;-65
2022/06/10 04:39:46;;;;;;;11.02;3.30;;;;;;;13.33;100.00;101945.44;5205811;28;20567;-66
2022/06/10 04:42:18;;;;;;;8.43;2.53;;;;;;;13.39;100.00;101950.38;5203563;28;20125;-65
2022/06/10 04:44:49;;;;;;;11.32;2.78;;;;;;;13.43;100.00;101949.19;5205832;28;20044;-65
2022/06/10 04:47:20;;;;;;;13.52;3.13;;;;;;;13.46;100.00;101950.78;5204196;28;20464;-65
2022/06/10 04:49:51;;;;;;;7.57;2.60;;;;;;;13.58;100.00;101949.06;5205784;28;20030;-65
2022/06/10 04:52:23;;;;;;;9.82;2.85;;;;;;;13.57;100.00;101956.22;5206172;28;20029;-65
2022/06/10 04:54:54;;;;;;;8.55;2.60;;;;;;;13.60;100.00;101956.03;5199300;28;20036;-65
2022/06/10 04:57:26;;;;;;;10.20;3.13;;;;;;;13.65;100.00;101953.00;5204483;28;20204;-65
2022/06/10 04:59:57;;;;;;;9.63;2.70;;;;;;;13.73;100.00;101954.19;5205115;28;20026;-65
2022/06/10 05:02:29;;;;;;;9.00;2.72;;;;;;;13.76;100.00;101952.22;5203558;28;20021;-65
2022/06/10 05:05:00;;;;;;;7.53;2.70;;;;;;;13.79;100.00;101942.16;5204144;28;20038;-65
2022/06/10 05:07:32;;;;;;;8.25;2.83;;;;;;;13.87;100.00;101952.31;5205811;28;20554;-65
2022/06/10 05:10:05;;;;;;;10.32;3.03;;;;;;;13.86;100.00;101948.75;5206345;28;20041;-65
2022/06/10 05:12:36;;;;;;;7.53;2.60;;;;;;;13.90;100.00;101946.72;5201546;28;20026;-65
2022/06/10 05:15:08;;;;;;;10.43;2.78;;;;;;;13.95;100.00;101949.91;5202452;28;20040;-65
2022/06/10 05:17:39;;;;;;;10.07;2.95;;;;;;;13.97;100.00;101944.44;5201042;28;20025;-65
2022/06/10 05:20:16;;;;;;;12.95;3.63;;;;;;;14.08;100.00;101944.53;5202955;28;20062;-65
2022/06/10 05:22:47;;;;;;;11.75;2.67;;;;;;;14.08;100.00;101941.84;5202748;28;20427;-65
2022/06/10 05:25:19;;;;;;;8.20;2.55;;;;;;;14.10;100.00;101938.06;5210432;28;20481;-65
2022/06/10 05:27:50;;;;;;;10.18;2.58;;;;;;;14.16;100.00;101938.59;5207246;28;20038;-65
2022/06/10 05:30:24;;;;;;;11.90;3.38;;;;;;;14.19;100.00;101944.59;5206175;28;20033;-65
2022/06/10 05:32:57;;;;;;;10.13;3.13;;;;;;;14.27;100.00;101944.88;5211933;28;20072;-65
2022/06/10 05:35:30;;;;;;;14.38;3.67;;;;;;;14.38;100.00;101936.00;5211285;28;20052;-65
2022/06/10 05:38:02;;;;;;;11.73;2.83;;;;;;;14.51;100.00;101942.16;5210546;28;20022;-65
2022/06/10 05:40:34;;;;;;;10.70;2.95;;;;;;;14.61;100.00;101934.31;5212183;28;20026;-65
2022/06/10 05:43:06;;;;;;;9.88;2.45;;;;;;;14.68;100.00;101943.59;5207164;28;20503;-65
2022/06/10 05:45:37;;;;;;;9.63;2.70;;;;;;;14.78;100.00;101940.19;5208404;28;20053;-65
2022/06/10 05:48:11;;;;;;;8.90;2.88;;;;;;;14.81;100.00;101939.97;5208737;28;20036;-65
2022/06/10 05:50:43;;;;;;;8.57;2.55;;;;;;;14.83;100.00;101941.56;5207057;28;20030;-65
2022/06/10 05:53:15;;;;;;;7.22;2.50;;;;;;;14.97;100.00;101940.47;5204030;28;20477;-65
2022/06/10 05:55:46;;;;;;;9.07;2.47;;;;;;;15.03;100.00;101942.72;5200703;28;20026;-65
2022/06/10 05:58:17;;;;;;;9.25;2.40;;;;;;;15.13;100.00;101936.59;5204668;28;20033;-65
2022/06/10 06:00:49;;;;;;;7.38;2.67;;;;;;;15.27;100.00;101942.59;5211038;28;20037;-65
2022/06/10 06:03:20;;;;;;;8.32;2.35;;;;;;;15.32;100.00;101938.69;5208918;28;20384;-65
2022/06/10 06:05:51;;;;;;;8.45;2.40;;;;;;;15.43;100.00;101944.06;5212443;28;20427;-65
2022/06/10 06:08:23;;;;;;;8.27;2.63;;;;;;;15.49;100.00;101931.00;5210627;28;20396;-65
2022/06/10 06:10:54;;;;;;;9.82;2.47;;;;;;;15.59;100.00;101941.88;5208374;28;20088;-65
2022/06/10 06:13:25;;;;;;;8.02;1.98;;;;;;;15.59;100.00;101944.56;5208345;28;20026;-66
2022/06/10 06:15:57;;;;;;;8.13;2.38;;;;;;;15.66;100.00;101951.16;5209245;28;20036;-65
2022/06/10 06:18:28;;;;;;;5.65;1.70;;;;;;;15.77;100.00;101949.47;5207129;28;20068;-65
2022/06/10 06:20:59;;;;;;;9.60;2.28;;;;;;;15.84;100.00;101948.00;5203218;28;20037;-65
2022/06/10 06:23:31;;;;;;;10.30;2.30;;;;;;;15.93;100.00;101949.09;5204923;28;20492;-65
2022/06/10 06:26:03;;;;;;;9.82;2.17;;;;;;;15.89;100.00;101953.84;5208281;28;20162;-66
2022/06/10 06:28:34;;;;;;;6.95;1.60;;;;;;;15.99;100.00;101957.53;5207854;28;20029;-65
2022/06/10 06:31:06;;;;;;;7.35;1.85;;;;;;;16.01;99.57;101954.69;5209832;28;20097;-65
2022/06/10 06:33:37;;;;;;;6.70;1.70;;;;;;;16.04;100.00;101963.38;5212483;28;20053;-65
2022/06/10 06:36:15;;;;;;;6.60;1.60;;;;;;;16.04;100.00;101967.91;5211529;28;20018;-65
2022/06/10 06:38:47;;;;;;;6.68;1.70;;;;;;;16.13;100.00;101964.47;5208667;28;20022;-65
2022/06/10 06:41:19;;;;;;;6.53;1.75;;;;;;;16.22;98.82;101970.91;5209743;28;20029;-65
2022/06/10 06:43:50;;;;;;;6.45;1.80;;;;;;;16.23;97.25;101973.47;5210582;28;20495;-65
2022/06/10 06:46:22;;;;;;;9.73;1.70;;;;;;;16.27;99.81;101977.63;5212448;28;20490;-65
2022/06/10 06:48:54;;;;;;;7.82;1.98;;;;;;;16.35;100.00;101978.84;5210765;28;20029;-65
2022/06/10 06:51:26;;;;;;;8.02;1.73;;;;;;;16.36;96.79;101981.41;5208551;28;20029;-65
2022/06/10 06:53:58;;;;;;;5.57;1.50;;;;;;;16.44;98.25;101980.78;5211518;28;21112;-65
2022/06/10 06:56:30;;;;;;;5.18;1.50;;;;;;;16.41;98.57;101986.41;5205683;28;20326;-65
2022/06/10 06:59:02;;;;;;;7.18;1.70;;;;;;;16.52;96.83;101986.38;5205638;28;20492;-66
2022/06/10 07:01:35;;;;;;;7.05;1.70;;;;;;;16.49;99.69;101986.63;5208167;28;20416;-65
2022/06/10 07:04:06;;;;;;;9.05;2.08;;;;;;;16.58;98.08;101987.69;5210478;28;20306;-65
2022/06/10 07:06:38;;;;;;;6.90;1.60;;;;;;;16.66;97.06;101980.69;5212412;28;20044;-65
2022/06/10 07:09:10;;;;;;;6.82;1.60;;;;;;;16.72;100.00;101989.22;5213256;28;20197;-65
2022/06/10 07:11:41;;;;;;;10.65;1.85;;;;;;;16.76;95.40;101982.59;5211660;28;20052;-65
2022/06/10 07:14:14;;;;;;;7.82;2.20;;;;;;;16.79;96.53;101980.50;5211154;28;20083;-65
2022/06/10 07:16:45;;;;;;;7.60;2.00;;;;;;;16.99;94.52;101976.13;5212041;28;20124;-66
2022/06/10 07:19:16;;;;;;;8.77;2.28;;;;;;;17.09;95.40;101980.75;5175918;28;1043527;-65
2022/06/10 07:21:51;;;;;;;10.02;1.85;;;;;;;17.33;92.88;101985.84;5214701;28;20044;-65
2022/06/10 07:24:22;;;;;;;7.13;1.73;;;;;;;17.46;93.72;101982.94;5208932;28;21729;-65
2022/06/10 07:26:54;;;;;;;9.82;1.90;;;;;;;17.64;93.34;101981.28;5214746;28;20037;-66
2022/06/10 07:29:27;;;;;;;9.32;1.95;;;;;;;17.69;93.61;101989.84;5216196;28;20484;-65
2022/06/10 07:31:58;;;;;;;5.55;1.30;;;;;;;17.66;90.78;101983.84;5210683;28;20044;-66
2022/06/10 07:34:29;;;;;;;6.70;1.70;;;;;;;17.51;95.14;101984.25;5210535;28;20030;-66
2022/06/10 07:37:01;;;;;;;4.28;1.73;;;;;;;17.54;90.04;101986.66;5212314;28;20495;-65
2022/06/10 07:39:33;;;;;;;5.60;1.42;;;;;;;17.52;95.11;101985.09;5213228;28;20029;-66
2022/06/10 07:42:05;;;;;;;6.85;1.42;;;;;;;17.48;92.09;101984.50;5212883;28;20022;-66
2022/06/10 07:44:37;;;;;;;6.90;2.00;;;;;;;17.54;89.04;101986.66;5211880;28;20462;-66
2022/06/10 07:47:11;;;;;;;6.50;1.48;;;;;;;17.57;90.69;101989.09;5211163;28;20423;-66
2022/06/10 07:49:43;;;;;;;4.53;2.15;;;;;;;17.53;89.66;101979.56;5209095;28;20065;-66
2022/06/10 07:52:15;;;;;;;5.47;1.50;;;;;;;17.43;91.24;101979.50;5209510;28;20153;-66
2022/06/10 07:54:46;;;;;;;4.55;1.23;;;;;;;17.51;91.26;101981.53;5210711;28;20093;-65
2022/06/10 07:57:18;;;;;;;5.20;1.30;;;;;;;17.62;89.70;101981.44;5208908;28;20038;-66
2022/06/10 07:59:51;;;;;;;6.43;1.67;;;;;;;17.80;89.10;101976.25;5207953;28;20045;-66
2022/06/10 08:02:23;;;;;;;8.45;1.63;;;;;;;17.85;89.54;101973.16;5212343;28;20034;-66
2022/06/10 08:04:54;;;;;;;4.90;1.15;;;;;;;18.05;92.19;101978.63;5209900;28;20057;-66
2022/06/10 08:07:25;;;;;;;4.85;1.63;;;;;;;18.23;93.48;101980.50;5213469;28;20487;-66
2022/06/10 08:09:56;;;;;;;6.32;1.60;;;;;;;18.41;88.23;101988.78;5209648;28;21393;-66
2022/06/10 08:12:28;;;;;;;6.82;1.50;;;;;;;18.35;89.80;101981.25;5208880;28;20044;-65
2022/06/10 08:14:59;;;;;;;5.30;1.40;;;;;;;18.57;86.44;101979.25;5209915;28;20033;-66
2022/06/10 08:17:30;;;;;;;7.20;1.50;;;;;;;18.72;84.56;101979.69;5211133;28;20389;-66
2022/06/10 08:20:02;;;;;;;6.25;1.48;;;;;;;18.84;83.98;101983.13;5210268;28;20096;-66
2022/06/10 08:22:35;;;;;;;7.00;1.92;;;;;;;18.88;82.01;101988.09;5211827;28;20048;-66
2022/06/10 08:25:10;;;;;;;8.38;1.70;;;;;;;18.98;78.80;101997.06;5208562;28;20494;-66
2022/06/10 08:27:41;;;;;;;9.90;2.05;;;;;;;18.97;81.89;101994.50;5210723;28;20896;-66
2022/06/10 08:30:16;;;;;;;8.60;1.65;;;;;;;19.02;78.81;101986.78;5211871;28;20025;-65
2022/06/10 08:32:47;;;;;;;6.22;2.28;;;;;;;19.00;78.98;101991.50;5208990;28;20574;-66
2022/06/10 08:35:18;;;;;;;8.18;2.03;;;;;;;19.00;82.52;102003.19;5212986;28;20021;-65
2022/06/10 08:37:50;;;;;;;9.48;2.25;;;;;;;19.00;77.98;101989.66;5209738;28;20034;-65
2022/06/10 08:40:27;;;;;;;9.40;2.08;;;;;;;18.91;82.29;101995.94;5212215;28;20196;-65
2022/06/10 08:43:27;;;;;;;8.18;2.22;;;;;;;18.93;82.12;101988.53;5213102;28;20038;-66
2022/06/10 08:46:22;;;;;;;7.22;2.22;;;;;;;19.11;81.74;101983.22;5209386;28;20057;-65
2022/06/10 08:49:19;;;;;;;8.68;2.42;;;;;;;19.24;82.07;101982.06;5207837;28;20120;-65
2022/06/10 08:51:57;;;;;;;9.27;2.28;;;;;;;19.53;80.92;101981.97;5208730;28;20128;-65
2022/06/10 08:54:39;;;;;;;9.57;2.70;;;;;;;19.66;81.69;101979.78;5209059;28;20041;-65
2022/06/10 08:57:27;;;;;;;9.10;2.22;;;;;;;19.86;78.59;101974.28;5212214;28;21781;-65
2022/06/10 09:00:01;;;;;;;9.55;2.70;;;;;;;19.94;75.64;101971.66;5207857;28;20223;-65
2022/06/10 09:02:41;;;;;;;10.68;2.40;;;;;;;19.90;76.76;101970.28;5212052;28;20037;-65
2022/06/10 09:05:26;;;;;;;11.68;2.60;;;;;;;19.91;75.58;101967.41;5210159;28;20471;-65
2022/06/10 09:08:00;;;;;;;12.52;2.42;;;;;;;20.04;76.19;101972.47;5206128;28;20030;-66
2022/06/10 09:11:11;;;;;;;9.27;2.40;;;;;;;20.10;77.76;101973.72;5210229;28;20042;-65
2022/06/10 09:13:43;;;;;;;10.55;2.42;;;;;;;20.16;75.10;101967.69;5211617;28;20399;-66
2022/06/10 09:16:23;;;;;;;10.15;2.10;;;;;;;20.26;80.03;101970.34;5210000;28;20026;-66
2022/06/10 09:19:33;;;;;;;6.30;1.80;;;;;;;20.30;77.69;101986.13;5211979;28;20050;-65
2022/06/10 09:22:07;;;;;;;7.63;2.10;;;;;;;20.26;74.23;101970.34;5205349;28;20484;-66
2022/06/10 09:24:43;;;;;;;;;;;;;;;20.30;80.53;101980.69;5211457;28;20176;-65
2022/06/10 09:27:23;;;;;;;7.22;2.40;;;;;;;20.12;76.41;101983.41;5210934;28;20047;-65
2022/06/10 09:29:57;;;;;;;10.93;2.70;;;;;;;20.17;74.48;101988.34;5208389;28;20423;-66
2022/06/10 09:32:36;;;;;;;8.75;2.20;;;;;;;20.44;75.31;101987.47;5205300;28;20037;-65
2022/06/10 09:35:46;;;;;;;8.93;1.90;;;;;;;20.74;76.24;101979.97;5205010;28;20425;-66
2022/06/10 09:38:44;;;;;;;7.72;2.13;;;;;;;20.83;77.33;101978.19;5206251;28;20490;-65
2022/06/10 09:41:28;;;;;;;9.82;2.60;;;;;;;20.82;74.05;101988.16;5205861;28;20092;-65
2022/06/10 09:44:24;;;;;;;10.35;2.80;;;;;;;21.00;76.36;101987.28;5205018;28;20112;-66
2022/06/10 09:47:17;;;;;;;7.97;2.28;;;;;;;21.03;73.48;101987.81;5208633;28;20037;-66
2022/06/10 09:50:14;;;;;;;8.30;2.35;;;;;;;21.16;73.86;101984.69;5206149;28;20113;-65
2022/06/10 09:53:12;;;;;;;7.03;2.13;;;;;;;21.18;75.06;101985.38;5205518;28;20145;-66
2022/06/10 09:56:02;;;;;;;11.27;2.78;;;;;;;21.28;75.96;101979.84;5208899;28;20053;-65
2022/06/10 09:58:57;;;;;;;12.43;2.78;;;;;;;21.34;74.90;101990.06;5207660;28;20447;-65
2022/06/10 10:01:49;;;;;;;9.43;2.20;;;;;;;21.40;74.26;101983.13;5206146;28;20030;-65
2022/06/10 10:04:35;;;;;;;11.20;2.55;;;;;;;21.46;74.70;101980.69;5206904;28;20022;-65
2022/06/10 10:07:20;;;;;;;10.18;2.40;;;;;;;21.46;75.79;101988.81;5206382;28;20041;-66
2022/06/10 10:10:20;;;;;;;7.95;2.55;;;;;;;21.67;72.87;101985.72;5211475;28;20032;-65
2022/06/10 10:13:29;;;;;;;9.45;2.63;;;;;;;21.88;75.41;101987.13;5211676;28;20077;-66
2022/06/10 10:16:16;;;;;;;12.75;2.85;;;;;;;22.02;72.42;101985.66;5208233;28;20069;-66
2022/06/10 10:19:14;;;;;;;7.88;2.40;;;;;;;21.95;73.62;101990.91;5209774;28;20050;-66
2022/06/10 10:22:10;;;;;;;8.65;2.55;;;;;;;21.80;70.72;101979.78;5212282;28;20066;-66
2022/06/10 10:24:44;;;;;;;12.10;2.88;;;;;;;21.77;71.89;101982.84;5209912;28;20038;-66
2022/06/10 10:27:30;;;;;;;11.07;2.85;;;;;;;21.92;71.76;101986.66;5215566;28;20034;-66
2022/06/10 10:30:20;;;;;;;9.60;2.88;;;;;;;21.96;71.51;101975.44;5210827;28;20037;-66
2022/06/10 10:32:56;;;;;;;6.90;2.55;;;;;;;21.99;71.98;101970.53;5210444;28;20030;-66
2022/06/10 10:35:40;;;;;;;7.75;2.33;;;;;;;22.34;69.90;101968.63;5208891;28;20112;-65
2022/06/10 10:38:26;;;;;;;;;;;;;;;22.57;74.96;101973.38;5213241;28;20030;-65
2022/06/10 10:40:59;;;;;;;9.80;2.50;;;;;;;22.65;69.10;101968.81;5212546;28;19921;-66
2022/06/10 10:43:31;;;;;;;8.45;2.75;;;;;;;22.81;67.72;101965.22;5207949;28;20380;-66
2022/06/10 10:46:20;;;;;;;10.30;3.10;;;;;;;22.77;69.90;101960.31;5211585;28;20034;-66
2022/06/10 10:48:52;;;;;;;8.27;2.63;;;;;;;22.91;68.92;101962.31;5208143;28;20073;-66
2022/06/10 10:51:31;;;;;;;9.73;2.95;;;;;;;22.87;70.41;101966.41;5209690;28;20108;-66
2022/06/10 10:54:18;;;;;;;9.85;3.08;;;;;;;22.88;69.00;101962.69;5210179;28;20139;-66
2022/06/10 10:56:51;;;;;;;8.70;2.92;;;;;;;22.79;67.90;101967.28;5210736;28;20030;-66
2022/06/10 10:59:33;;;;;;;8.75;2.90;;;;;;;22.81;68.00;101961.66;5209835;28;20065;-66
2022/06/10 11:02:26;;;;;;;8.93;2.65;;;;;;;22.79;71.06;101970.00;5212327;28;20506;-66
2022/06/10 11:05:31;;;;;;;7.60;2.50;;;;;;;22.83;71.93;101960.47;5205463;28;20030;-66
2022/06/10 11:08:14;;;;;;;10.52;3.45;;;;;;;22.69;68.77;101963.88;5207023;28;20060;-66
2022/06/10 11:11:17;;;;;;;8.05;3.50;;;;;;;22.63;68.69;101961.84;5208213;28;20030;-66
2022/06/10 11:13:52;;;;;;;7.95;2.90;;;;;;;22.80;67.83;101965.38;5207309;28;20399;-66
2022/06/10 11:16:34;;;;;;;6.30;2.58;;;;;;;22.82;71.93;101963.34;5209597;28;20040;-66
2022/06/10 11:19:25;;;;;;;7.63;2.65;;;;;;;23.17;68.02;101962.16;5209207;28;20447;-66
2022/06/10 11:22:21;;;;;;;8.10;2.45;;;;;;;23.34;73.25;101962.97;5206184;28;20033;-66
2022/06/10 11:25:22;;;;;;;7.57;2.60;;;;;;;23.31;70.25;101967.91;5208915;28;20030;-66
2022/06/10 11:27:55;;;;;;;8.05;2.58;;;;;;;23.04;67.35;101961.84;5207146;28;20080;-66
2022/06/10 11:30:37;;;;;;;9.30;2.72;;;;;;;23.08;69.53;101960.47;5207116;28;20041;-66
2022/06/10 11:33:24;;;;;;;9.63;2.80;;;;;;;23.19;68.36;101960.13;5210729;28;20040;-66
2022/06/10 11:36:10;;;;;;;7.43;2.58;;;;;;;23.09;71.24;101960.31;5211923;28;20034;-66
2022/06/10 11:39:05;;;;;;;7.43;2.67;;;;;;;23.04;69.73;101951.78;5209950;28;20026;-66
2022/06/10 11:41:36;;;;;;;9.90;2.90;;;;;;;22.92;65.88;101952.31;5208336;28;20042;-66
2022/06/10 11:44:16;;;;;;;6.30;2.22;;;;;;;22.93;66.59;101954.84;5208881;28;20037;-66
2022/06/10 11:47:05;;;;;;;7.28;2.45;;;;;;;22.75;65.29;101957.75;5210299;28;20447;-66
2022/06/10 11:50:19;;;;;;;9.68;2.33;;;;;;;22.62;68.17;101946.53;5206107;28;20432;-66
2022/06/10 11:53:06;;;;;;;6.03;2.15;;;;;;;22.46;65.58;101937.34;5210777;28;20050;-66
2022/06/10 11:55:41;;;;;;;9.15;2.13;;;;;;;22.64;65.63;101942.63;5214417;28;20578;-66
2022/06/10 12:01:22;;;;;;;7.38;2.78;;;;;;;22.80;66.35;101935.47;5210507;28;20423;-66
2022/06/10 12:04:03;;;;;;;9.85;2.70;;;;;;;22.75;71.32;101930.53;5209157;28;20037;-66
2022/06/10 12:06:48;;;;;;;8.40;2.38;;;;;;;22.83;65.28;101930.53;5211429;28;20025;-66
2022/06/10 12:09:27;;;;;;;7.13;1.90;;;;;;;22.93;64.54;101930.34;5210517;28;20385;-66
2022/06/10 12:12:13;;;;;;;10.27;2.33;;;;;;;23.05;64.18;101930.84;5208712;28;20091;-66
2022/06/10 12:14:54;;;;;;;5.97;1.80;;;;;;;22.88;65.02;101930.88;5206016;28;20392;-66
2022/06/10 12:17:31;;;;;;;7.22;2.28;;;;;;;22.97;64.94;101928.13;5207896;28;20034;-66